createdAt,value
2018-03-24T00:02:22.949Z,44.58
2018-03-24T00:04:50.426Z,48.87
2018-03-24T00:07:17.883Z,47.37
2018-03-24T00:09:45.361Z,50.60
2018-03-24T00:12:12.798Z,49.50
2018-03-24T00:14:40.232Z,47.03
2018-03-24T00:17:07.674Z,47.37
2018-03-24T00:19:35.113Z,41.70
2018-03-24T00:22:02.546Z,41.08
2018-03-24T00:24:30.072Z,48.27
2018-03-24T00:26:57.799Z,41.07
2018-03-24T00:29:25.226Z,40.93
2018-03-24T00:31:52.786Z,45.35
2018-03-24T00:34:20.218Z,47.17
2018-03-24T00:36:47.656Z,48.50
2018-03-24T00:39:16.203Z,47.63
2018-03-24T00:41:43.654Z,38.37
2018-03-24T00:44:11.150Z,40.53
2018-03-24T00:46:38.599Z,40.13
2018-03-24T00:49:06.033Z,44.13
2018-03-24T00:51:33.465Z,38.07
2018-03-24T00:54:00.918Z,41.07
2018-03-24T00:56:28.387Z,41.63
2018-03-24T00:58:55.820Z,42.30
2018-03-24T01:01:23.272Z,41.17
2018-03-24T01:03:50.717Z,40.05
2018-03-24T01:06:18.753Z,38.33
2018-03-24T01:08:46.219Z,42.50
2018-03-24T01:11:13.719Z,46.77
2018-03-24T01:13:41.159Z,44.80
2018-03-24T01:16:08.639Z,48.07
2018-03-24T01:18:36.073Z,44.33
2018-03-24T01:21:03.509Z,45.10
2018-03-24T01:23:30.950Z,48.43
2018-03-24T01:25:58.566Z,41.67
2018-03-24T01:28:25.992Z,45.37
2018-03-24T01:30:53.498Z,45.37
2018-03-24T01:33:20.933Z,45.87
2018-03-24T01:35:48.364Z,46.13
2018-03-24T01:38:15.858Z,44.13
2018-03-24T01:40:43.302Z,51.20
2018-03-24T01:43:10.784Z,53.90
2018-03-24T01:45:38.222Z,43.87
2018-03-24T01:48:05.645Z,43.97
2018-03-24T01:50:33.074Z,45.90
2018-03-24T01:53:00.514Z,42.70
2018-03-24T01:55:27.951Z,45.63
2018-03-24T01:57:55.382Z,46.73
2018-03-24T02:00:22.831Z,44.13
2018-03-24T02:02:50.283Z,48.67
2018-03-24T02:05:17.711Z,43.77
2018-03-24T02:07:46.109Z,44.22
2018-03-24T02:10:13.623Z,42.97
2018-03-24T02:12:41.055Z,41.10
2018-03-24T02:15:08.490Z,45.53
2018-03-24T02:17:35.929Z,40.70
2018-03-24T02:20:03.358Z,38.60
2018-03-24T02:22:30.802Z,40.90
2018-03-24T02:24:58.239Z,42.80
2018-03-24T02:27:25.667Z,41.00
2018-03-24T02:29:53.182Z,33.17
2018-03-24T02:32:20.639Z,41.10
2018-03-24T02:34:48.090Z,43.20
2018-03-24T02:37:15.545Z,43.10
2018-03-24T02:39:42.976Z,48.65
2018-03-24T02:42:10.421Z,69.87
2018-03-24T02:44:37.864Z,41.65
2018-03-24T02:47:05.300Z,41.33
2018-03-24T02:49:32.734Z,36.80
2018-03-24T02:52:00.183Z,38.03
2018-03-24T02:54:27.804Z,40.78
2018-03-24T02:56:55.248Z,36.17
2018-03-24T02:59:22.770Z,37.67
2018-03-24T03:01:50.235Z,38.77
2018-03-24T03:04:17.687Z,39.17
2018-03-24T03:06:45.122Z,41.10
2018-03-24T03:09:12.559Z,41.25
2018-03-24T03:11:39.987Z,38.00
2018-03-24T03:14:07.435Z,37.90
2018-03-24T03:16:34.863Z,41.47
2018-03-24T03:19:02.299Z,44.83
2018-03-24T03:21:41.639Z,41.40
2018-03-24T03:24:09.067Z,43.97
2018-03-24T03:26:36.502Z,43.40
2018-03-24T03:29:04.038Z,41.70
2018-03-24T03:31:31.474Z,38.80
2018-03-24T03:33:58.907Z,38.97
2018-03-24T03:36:26.357Z,39.60
2018-03-24T03:38:53.811Z,38.77
2018-03-24T03:41:21.238Z,34.20
2018-03-24T03:43:48.781Z,42.88
2018-03-24T03:46:16.264Z,40.50
2018-03-24T03:48:43.691Z,48.57
2018-03-24T03:51:11.136Z,38.87
2018-03-24T03:53:38.622Z,45.47
2018-03-24T03:56:06.766Z,45.42
2018-03-24T03:58:34.211Z,46.63
2018-03-24T04:01:01.639Z,47.60
2018-03-24T04:03:29.073Z,48.00
2018-03-24T04:05:56.511Z,48.63
2018-03-24T04:08:23.945Z,45.95
2018-03-24T04:10:51.370Z,48.20
2018-03-24T04:13:18.815Z,49.17
2018-03-24T04:15:46.260Z,60.93
2018-03-24T04:18:13.686Z,56.10
2018-03-24T04:20:41.252Z,61.50
2018-03-24T04:23:08.690Z,58.50
2018-03-24T04:25:36.246Z,62.17
2018-03-24T04:28:03.688Z,58.43
2018-03-24T04:30:31.168Z,66.03
2018-03-24T04:32:58.606Z,61.35
2018-03-24T04:35:26.106Z,53.30
2018-03-24T04:37:53.540Z,63.13
2018-03-24T04:40:21.022Z,57.83
2018-03-24T04:42:48.731Z,61.65
2018-03-24T04:45:16.163Z,60.10
2018-03-24T04:47:43.596Z,59.83
2018-03-24T04:50:11.061Z,61.73
2018-03-24T04:52:38.494Z,62.80
2018-03-24T04:55:05.979Z,57.13
2018-03-24T04:57:33.423Z,58.60
2018-03-24T05:00:00.871Z,53.77
2018-03-24T05:02:28.303Z,57.03
2018-03-24T05:04:55.787Z,52.90
2018-03-24T05:07:23.215Z,48.47
2018-03-24T05:09:50.709Z,59.40
2018-03-24T05:12:18.152Z,54.37
2018-03-24T05:14:45.580Z,58.23
2018-03-24T05:17:13.007Z,55.27
2018-03-24T05:19:40.518Z,62.20
2018-03-24T05:22:07.950Z,53.83
2018-03-24T05:24:35.382Z,56.73
2018-03-24T05:27:02.830Z,58.90
2018-03-24T05:29:30.258Z,55.53
2018-03-24T05:31:57.693Z,53.17
2018-03-24T05:34:25.134Z,65.07
2018-03-24T05:36:52.566Z,65.45
2018-03-24T05:39:20.004Z,74.90
2018-03-24T05:41:47.452Z,80.03
2018-03-24T05:44:14.885Z,87.85
2018-03-24T05:46:42.315Z,78.20
2018-03-24T05:49:09.763Z,78.93
2018-03-24T05:51:37.189Z,80.65
2018-03-24T05:54:04.648Z,73.37
2018-03-24T05:56:32.091Z,75.87
2018-03-24T05:58:59.553Z,81.27
2018-03-24T06:01:26.983Z,82.23
2018-03-24T06:03:54.427Z,78.33
2018-03-24T06:06:21.892Z,76.57
2018-03-24T06:08:49.330Z,81.17
2018-03-24T06:11:16.772Z,86.50
2018-03-24T06:13:44.209Z,93.77
2018-03-24T06:16:11.639Z,105.80
2018-03-24T06:18:39.840Z,99.97
2018-03-24T06:21:07.302Z,92.17
2018-03-24T06:23:34.734Z,91.67
2018-03-24T06:26:02.211Z,83.20
2018-03-24T06:28:29.642Z,76.75
2018-03-24T06:30:57.078Z,88.97
2018-03-24T06:33:24.529Z,71.00
2018-03-24T06:35:51.964Z,72.40
2018-03-24T06:38:19.487Z,69.87
2018-03-24T06:40:46.968Z,74.80
2018-03-24T06:43:14.393Z,62.90
2018-03-24T06:45:41.833Z,71.20
2018-03-24T06:48:09.283Z,65.20
2018-03-24T06:50:36.736Z,57.43
2018-03-24T06:53:04.288Z,58.17
2018-03-24T06:55:32.067Z,49.70
2018-03-24T06:57:59.493Z,55.03
2018-03-24T07:00:26.969Z,51.33
2018-03-24T07:02:54.423Z,46.60
2018-03-24T07:05:21.881Z,53.70
2018-03-24T07:07:49.383Z,55.50
2018-03-24T07:10:16.839Z,52.93
2018-03-24T07:12:44.266Z,52.57
2018-03-24T07:15:11.699Z,47.23
2018-03-24T07:17:39.146Z,54.80
2018-03-24T07:20:06.666Z,51.33
2018-03-24T07:22:34.811Z,49.43
2018-03-24T07:25:02.269Z,50.67
2018-03-24T07:27:29.714Z,47.70
2018-03-24T07:29:57.220Z,45.43
2018-03-24T07:32:24.676Z,44.47
2018-03-24T07:34:52.110Z,45.47
2018-03-24T07:37:19.551Z,40.67
2018-03-24T07:39:46.997Z,41.17
2018-03-24T07:42:14.430Z,41.10
2018-03-24T07:44:41.873Z,39.40
2018-03-24T07:47:09.321Z,36.43
2018-03-24T07:49:36.751Z,41.27
2018-03-24T07:52:04.202Z,42.80
2018-03-24T07:54:31.642Z,39.45
2018-03-24T07:56:59.075Z,40.20
2018-03-24T07:59:26.777Z,43.57
2018-03-24T08:01:54.231Z,37.73
2018-03-24T08:04:21.683Z,42.05
2018-03-24T08:06:49.119Z,42.37
2018-03-24T08:09:16.567Z,34.60
2018-03-24T08:11:43.991Z,37.10
2018-03-24T08:14:11.419Z,39.33
2018-03-24T08:16:38.903Z,42.70
2018-03-24T08:19:06.379Z,36.63
2018-03-24T08:21:33.822Z,36.20
2018-03-24T08:24:01.263Z,36.23
2018-03-24T08:26:28.694Z,36.90
2018-03-24T08:28:56.126Z,36.00
2018-03-24T08:31:23.654Z,34.40
2018-03-24T08:33:51.102Z,33.20
2018-03-24T08:36:18.538Z,29.20
2018-03-24T08:38:45.994Z,24.70
2018-03-24T08:41:13.418Z,25.97
2018-03-24T08:43:40.908Z,23.47
2018-03-24T08:46:08.502Z,28.60
2018-03-24T08:48:35.942Z,24.40
2018-03-24T08:51:03.386Z,23.58
2018-03-24T08:53:31.126Z,28.25
2018-03-24T08:55:58.560Z,27.47
2018-03-24T08:58:26.098Z,23.37
2018-03-24T09:00:53.549Z,23.80
2018-03-24T09:03:21.011Z,23.67
2018-03-24T09:05:48.438Z,27.47
2018-03-24T09:08:15.957Z,22.97
2018-03-24T09:10:43.487Z,25.17
2018-03-24T09:13:10.919Z,20.97
2018-03-24T09:15:38.363Z,18.17
2018-03-24T09:18:05.815Z,20.17
2018-03-24T09:20:33.278Z,16.70
2018-03-24T09:23:00.725Z,19.92
2018-03-24T09:25:28.155Z,18.47
2018-03-24T09:27:55.594Z,18.13
2018-03-24T09:30:23.039Z,18.00
2018-03-24T09:32:50.494Z,13.73
2018-03-24T09:35:17.968Z,13.65
2018-03-24T09:37:45.415Z,14.32
2018-03-24T09:40:12.847Z,13.03
2018-03-24T09:42:40.286Z,12.37
2018-03-24T09:45:07.728Z,13.52
2018-03-24T09:47:35.166Z,12.40
2018-03-24T09:50:02.596Z,14.23
2018-03-24T09:52:30.059Z,13.30
2018-03-24T09:54:57.758Z,12.85
2018-03-24T09:57:25.191Z,11.77
2018-03-24T09:59:52.692Z,16.33
2018-03-24T10:02:20.156Z,13.50
2018-03-24T10:04:47.610Z,12.07
2018-03-24T10:07:15.214Z,13.10
2018-03-24T10:09:42.652Z,14.63
2018-03-24T10:12:10.084Z,12.83
2018-03-24T10:14:37.532Z,14.82
2018-03-24T10:17:04.982Z,15.70
2018-03-24T10:19:32.499Z,14.27
2018-03-24T10:22:06.963Z,14.37
2018-03-24T10:24:34.395Z,17.90
2018-03-24T10:27:01.935Z,13.50
2018-03-24T10:29:29.495Z,12.77
2018-03-24T10:31:56.930Z,14.67
2018-03-24T10:34:24.362Z,14.17
2018-03-24T10:36:51.856Z,13.70
2018-03-24T10:39:19.290Z,15.40
2018-03-24T10:41:46.727Z,13.50
2018-03-24T10:44:14.185Z,14.83
2018-03-24T10:46:41.694Z,13.90
2018-03-24T10:49:09.131Z,14.30
2018-03-24T10:51:36.610Z,14.30
2018-03-24T10:54:04.045Z,12.60
2018-03-24T10:56:31.477Z,12.27
2018-03-24T10:58:58.922Z,13.30
2018-03-24T11:01:26.370Z,14.33
2018-03-24T11:03:53.915Z,13.37
2018-03-24T11:06:21.729Z,14.20
2018-03-24T11:08:49.229Z,14.03
2018-03-24T11:11:16.672Z,13.10
2018-03-24T11:13:44.237Z,12.93
2018-03-24T11:16:11.731Z,17.17
2018-03-24T11:18:40.036Z,13.07
2018-03-24T11:21:07.539Z,13.50
2018-03-24T11:23:35.036Z,12.90
2018-03-24T11:26:02.473Z,12.67
2018-03-24T11:28:29.904Z,12.37
2018-03-24T11:30:57.367Z,14.30
2018-03-24T11:33:24.814Z,13.13
2018-03-24T11:35:52.264Z,14.07
2018-03-24T11:38:19.728Z,12.43
2018-03-24T11:40:47.181Z,14.10
2018-03-24T11:43:14.634Z,14.13
2018-03-24T11:45:42.758Z,14.82
2018-03-24T11:48:10.223Z,14.77
2018-03-24T11:50:37.734Z,14.90
2018-03-24T11:53:05.166Z,13.73
2018-03-24T11:55:32.608Z,15.47
2018-03-24T11:58:00.114Z,15.25
2018-03-24T12:00:27.570Z,15.47
2018-03-24T12:02:55.008Z,14.60
2018-03-24T12:05:22.454Z,13.32
2018-03-24T12:07:50.648Z,14.90
2018-03-24T12:10:18.117Z,13.87
2018-03-24T12:12:45.565Z,14.23
2018-03-24T12:15:13.030Z,13.20
2018-03-24T12:17:40.479Z,14.03
2018-03-24T12:20:08.774Z,13.13
2018-03-24T12:22:36.215Z,13.63
2018-03-24T12:25:03.681Z,13.30
2018-03-24T12:27:31.204Z,14.10
2018-03-24T12:29:58.644Z,15.03
2018-03-24T12:32:26.156Z,13.40
2018-03-24T12:34:53.625Z,11.83
2018-03-24T12:37:21.054Z,15.17
2018-03-24T12:39:49.183Z,13.10
2018-03-24T12:42:16.760Z,14.37
2018-03-24T12:44:44.207Z,13.80
2018-03-24T12:47:11.742Z,11.87
2018-03-24T12:49:39.206Z,12.83
2018-03-24T12:52:06.642Z,13.00
2018-03-24T12:54:34.077Z,13.40
2018-03-24T12:57:01.522Z,13.47
2018-03-24T12:59:28.959Z,13.23
2018-03-24T13:01:56.423Z,13.87
2018-03-24T13:04:23.924Z,13.60
2018-03-24T13:06:51.383Z,12.83
2018-03-24T13:09:18.844Z,14.27
2018-03-24T13:11:46.310Z,14.10
2018-03-24T13:14:13.742Z,13.17
2018-03-24T13:16:41.209Z,14.52
2018-03-24T13:19:08.663Z,14.80
2018-03-24T13:21:36.124Z,14.10
2018-03-24T13:24:03.559Z,12.73
2018-03-24T13:26:31.603Z,12.13
2018-03-24T13:28:59.104Z,14.60
2018-03-24T13:31:26.556Z,12.40
2018-03-24T13:33:54.310Z,13.00
2018-03-24T13:36:21.752Z,13.80
2018-03-24T13:38:49.252Z,12.00
2018-03-24T13:41:16.703Z,13.57
2018-03-24T13:43:44.147Z,12.00
2018-03-24T13:46:11.621Z,12.43
2018-03-24T13:48:39.075Z,11.80
2018-03-24T13:51:06.512Z,13.87
2018-03-24T13:53:33.952Z,13.80
2018-03-24T13:56:01.416Z,13.00
2018-03-24T13:58:28.854Z,13.50
2018-03-24T14:00:56.286Z,12.98
2018-03-24T14:03:23.752Z,13.13
2018-03-24T14:05:51.280Z,12.30
2018-03-24T14:08:18.741Z,13.35
2018-03-24T14:10:46.191Z,12.17
2018-03-24T14:13:13.649Z,13.07
2018-03-24T14:15:41.087Z,14.07
2018-03-24T14:18:08.560Z,15.23
2018-03-24T14:20:36.865Z,15.20
2018-03-24T14:23:04.418Z,14.80
2018-03-24T14:25:31.866Z,14.90
2018-03-24T14:27:59.295Z,14.20
2018-03-24T14:30:27.083Z,13.70
2018-03-24T14:32:54.523Z,13.32
2018-03-24T14:35:21.957Z,13.90
2018-03-24T14:37:49.390Z,12.73
2018-03-24T14:40:16.830Z,13.43
2018-03-24T14:42:44.265Z,14.00
2018-03-24T14:45:11.702Z,13.43
2018-03-24T14:47:39.174Z,14.00
2018-03-24T14:50:06.610Z,14.60
2018-03-24T14:52:34.766Z,15.17
2018-03-24T14:55:02.264Z,13.60
2018-03-24T14:57:29.732Z,15.33
2018-03-24T14:59:57.768Z,13.03
2018-03-24T15:02:25.268Z,14.67
2018-03-24T15:04:52.699Z,13.90
2018-03-24T15:07:20.152Z,14.67
2018-03-24T15:09:47.735Z,14.67
2018-03-24T15:12:15.249Z,14.87
2018-03-24T15:14:42.696Z,13.53
2018-03-24T15:17:10.192Z,14.97
2018-03-24T15:19:37.631Z,13.70
2018-03-24T15:22:05.080Z,15.63
2018-03-24T15:24:32.570Z,14.67
2018-03-24T15:27:00.020Z,14.37
2018-03-24T15:42:59.079Z,13.77
2018-03-24T15:45:26.526Z,14.90
2018-03-24T15:47:53.966Z,14.13
2018-03-24T15:50:21.747Z,16.03
2018-03-24T15:52:49.254Z,12.30
2018-03-24T15:55:16.854Z,14.03
2018-03-24T15:57:44.372Z,13.07
2018-03-24T16:00:12.102Z,14.13
2018-03-24T16:02:39.538Z,13.98
2018-03-24T16:14:55.046Z,16.90
2018-03-24T16:17:22.488Z,13.32
2018-03-24T16:19:49.940Z,13.77
2018-03-24T16:22:17.400Z,17.57
2018-03-24T16:24:44.840Z,13.68
2018-03-24T16:27:12.327Z,16.00
2018-03-24T16:29:39.787Z,15.80
2018-03-24T16:32:07.235Z,14.25
2018-03-24T16:34:34.687Z,16.95
2018-03-24T16:37:02.175Z,14.83
2018-03-24T16:39:29.811Z,13.75
2018-03-24T16:41:57.310Z,15.20
2018-03-24T16:44:24.714Z,14.23
2018-03-24T16:46:52.155Z,15.33
2018-03-24T16:49:19.649Z,16.12
2018-03-24T16:51:47.088Z,14.97
2018-03-24T16:54:14.532Z,16.03
2018-03-24T16:56:41.990Z,15.65
2018-03-24T16:59:09.756Z,15.50
2018-03-24T17:01:37.206Z,18.67
2018-03-24T17:04:04.660Z,30.75
2018-03-24T17:06:32.094Z,18.10
2018-03-24T17:08:59.534Z,16.60
2018-03-24T17:11:26.997Z,17.23
2018-03-24T17:13:54.438Z,16.80
2018-03-24T17:16:21.868Z,17.37
2018-03-24T17:18:49.314Z,19.87
2018-03-24T17:21:16.820Z,17.87
2018-03-24T17:23:44.260Z,24.90
2018-03-24T17:26:11.704Z,21.30
2018-03-24T17:28:39.149Z,16.65
2018-03-24T17:31:06.584Z,17.50
2018-03-24T17:33:34.027Z,17.63
2018-03-24T17:36:01.467Z,45.15
2018-03-24T17:38:28.899Z,23.00
2018-03-24T17:40:56.339Z,18.17
2018-03-24T17:43:23.773Z,20.67
2018-03-24T17:45:51.779Z,24.90
2018-03-24T17:48:19.227Z,21.40
2018-03-24T17:50:46.719Z,21.43
2018-03-24T17:53:14.152Z,20.37
2018-03-24T17:55:41.611Z,24.27
2018-03-24T17:58:09.055Z,22.42
2018-03-24T18:00:36.507Z,22.73
2018-03-24T18:03:03.950Z,22.17
2018-03-24T18:05:31.383Z,19.58
2018-03-24T18:07:58.831Z,22.23
2018-03-24T18:10:26.282Z,20.33
2018-03-24T18:12:53.706Z,19.87
2018-03-24T18:15:21.146Z,24.80
2018-03-24T18:17:48.602Z,21.62
2018-03-24T18:20:16.041Z,20.80
2018-03-24T18:22:43.540Z,23.92
2018-03-24T18:25:10.983Z,29.80
2018-03-24T18:27:38.422Z,39.28
2018-03-24T18:30:05.869Z,28.38
2018-03-24T18:32:33.365Z,25.50
2018-03-24T18:35:00.870Z,23.60
2018-03-24T18:37:28.288Z,22.30
2018-03-24T18:39:55.805Z,23.53
2018-03-24T18:42:23.241Z,21.30
2018-03-24T18:44:50.695Z,25.93
2018-03-24T18:47:18.774Z,27.60
2018-03-24T18:49:46.207Z,27.60
2018-03-24T18:52:13.638Z,27.15
2018-03-24T18:54:41.082Z,26.53
2018-03-24T18:57:08.519Z,24.53
2018-03-24T18:59:36.047Z,163.90
2018-03-24T19:02:03.491Z,31.97
2018-03-24T19:04:31.027Z,26.80
2018-03-24T19:06:58.454Z,28.40
2018-03-24T19:09:25.894Z,25.85
2018-03-24T19:11:53.322Z,30.57
2018-03-24T19:14:20.749Z,23.70
2018-03-24T19:16:48.200Z,26.55
2018-03-24T19:19:15.646Z,24.70
2018-03-24T19:21:43.083Z,24.97
2018-03-24T19:24:10.580Z,23.50
2018-03-24T19:26:38.068Z,25.93
2018-03-24T19:29:05.525Z,54.30
2018-03-24T19:31:32.989Z,36.38
2018-03-24T19:34:01.167Z,31.48
2018-03-24T19:36:28.599Z,22.60
2018-03-24T19:38:56.051Z,24.60
2018-03-24T19:41:23.487Z,26.70
2018-03-24T19:43:50.914Z,25.43
2018-03-24T19:46:18.417Z,24.73
2018-03-24T19:48:45.847Z,25.30
2018-03-24T19:51:13.283Z,26.93
2018-03-24T19:53:41.038Z,28.58
2018-03-24T19:56:08.462Z,25.63
2018-03-24T19:58:35.898Z,28.10
2018-03-24T20:01:03.356Z,30.80
2018-03-24T20:03:30.810Z,24.40
2018-03-24T20:05:58.282Z,26.73
2018-03-24T20:08:25.714Z,30.93
2018-03-24T20:10:53.164Z,27.60
2018-03-24T20:13:20.595Z,26.30
2018-03-24T20:15:48.107Z,30.85
2018-03-24T20:18:15.580Z,27.55
2018-03-24T20:20:43.090Z,24.53
2018-03-24T20:23:10.580Z,27.47
2018-03-24T20:25:38.032Z,25.20
2018-03-24T20:28:05.756Z,32.50
2018-03-24T20:30:33.474Z,28.77
2018-03-24T20:33:00.921Z,27.30
2018-03-24T20:35:28.631Z,47.60
2018-03-24T20:37:59.231Z,33.10
2018-03-24T20:40:26.767Z,30.45
2018-03-24T20:42:54.201Z,27.90
2018-03-24T20:45:21.659Z,24.73
2018-03-24T20:47:49.094Z,25.60
2018-03-24T20:50:16.605Z,27.75
2018-03-24T20:52:44.047Z,28.40
2018-03-24T20:55:11.491Z,28.80
2018-03-24T20:57:38.923Z,30.10
2018-03-24T21:00:06.794Z,32.88
2018-03-24T21:02:34.578Z,29.43
2018-03-24T21:05:02.015Z,27.33
2018-03-24T21:07:29.463Z,32.43
2018-03-24T21:09:56.991Z,31.57
2018-03-24T21:12:24.422Z,31.47
2018-03-24T21:14:51.868Z,29.63
2018-03-24T21:17:19.555Z,30.80
2018-03-24T21:19:47.130Z,32.25
2018-03-24T21:22:14.570Z,34.24
2018-03-24T21:24:42.022Z,32.03
2018-03-24T21:27:09.463Z,33.40
2018-03-24T21:29:36.912Z,27.92
2018-03-24T21:32:05.162Z,28.70
2018-03-24T21:34:32.617Z,31.00
2018-03-24T21:37:00.139Z,30.57
2018-03-24T21:39:27.566Z,32.23
2018-03-24T21:41:54.999Z,32.77
2018-03-24T21:44:22.446Z,31.83
2018-03-24T21:46:49.983Z,33.97
2018-03-24T21:49:17.460Z,35.23
2018-03-24T21:51:44.898Z,31.17
2018-03-24T21:54:12.723Z,32.55
2018-03-24T21:56:40.163Z,33.23
2018-03-24T21:59:07.607Z,29.95
2018-03-24T22:01:35.043Z,37.40
2018-03-24T22:04:02.580Z,33.33
2018-03-24T22:06:30.043Z,32.30
2018-03-24T22:08:57.506Z,28.17
2018-03-24T22:11:24.944Z,32.43
2018-03-24T22:13:52.663Z,37.70
2018-03-24T22:16:20.142Z,35.23
2018-03-24T22:18:47.570Z,35.07
2018-03-24T22:21:15.066Z,35.30
2018-03-24T22:23:42.482Z,31.83
2018-03-24T22:26:09.983Z,30.43
2018-03-24T22:28:37.366Z,36.57
2018-03-24T22:31:04.801Z,36.67
2018-03-24T22:33:32.244Z,33.97
2018-03-24T22:35:59.980Z,36.43
2018-03-24T22:38:27.511Z,33.95
2018-03-24T22:40:55.096Z,36.60
2018-03-24T22:43:22.562Z,32.80
2018-03-24T22:45:50.007Z,37.00
2018-03-24T22:48:17.439Z,31.80
2018-03-24T22:50:44.889Z,34.50
2018-03-24T22:53:12.326Z,35.13
2018-03-24T22:55:39.771Z,36.20
2018-03-24T22:58:07.207Z,33.30
2018-03-24T23:00:34.655Z,38.97
2018-03-24T23:03:02.093Z,35.15
2018-03-24T23:05:29.539Z,33.20
2018-03-24T23:07:56.984Z,34.10
2018-03-24T23:10:24.506Z,32.40
